createdAt,value
2022-07-29T00:01:59.428Z,1.10
2022-07-29T00:07:05.150Z,1.00
2022-07-29T00:12:10.246Z,1.02
2022-07-29T00:17:14.024Z,0.90
2022-07-29T00:22:24.320Z,0.73
2022-07-29T00:27:27.867Z,0.90
2022-07-29T00:32:31.602Z,0.90
2022-07-29T00:37:36.613Z,0.90
2022-07-29T00:42:47.524Z,0.90
2022-07-29T00:47:52.511Z,0.90
2022-07-29T00:52:57.581Z,0.98
2022-07-29T00:58:02.244Z,0.95
2022-07-29T01:03:05.926Z,0.90
2022-07-29T01:08:13.084Z,0.80
2022-07-29T01:18:30.945Z,0.90
2022-07-29T01:24:11.510Z,0.80
2022-07-29T01:29:29.757Z,0.77
2022-07-29T01:34:51.109Z,0.90
2022-07-29T01:39:59.604Z,0.80
2022-07-29T01:45:15.102Z,0.90
2022-07-29T01:50:21.103Z,0.93
2022-07-29T01:55:34.487Z,1.00
2022-07-29T02:00:43.858Z,1.10
2022-07-29T02:05:50.860Z,0.80
2022-07-29T02:10:55.933Z,1.00
2022-07-29T02:16:03.230Z,1.00
2022-07-29T02:26:22.009Z,0.70
2022-07-29T02:31:33.510Z,0.80
2022-07-29T02:36:37.591Z,0.90
2022-07-29T02:41:47.211Z,0.90
2022-07-29T02:47:13.868Z,0.80
2022-07-29T02:52:26.509Z,0.88
2022-07-29T02:57:54.794Z,0.80
2022-07-29T03:03:04.763Z,0.90
2022-07-29T03:08:12.835Z,0.80
2022-07-29T03:13:18.306Z,0.85
2022-07-29T03:18:23.996Z,0.90
2022-07-29T03:23:28.903Z,0.80
2022-07-29T03:28:38.903Z,0.88
2022-07-29T03:33:44.695Z,0.80
2022-07-29T03:38:50.283Z,0.90
2022-07-29T03:43:56.020Z,0.90
2022-07-29T03:49:03.762Z,0.70
2022-07-29T03:54:10.261Z,0.70
2022-07-29T03:59:16.141Z,0.80
2022-07-29T04:04:21.260Z,0.73
2022-07-29T04:09:25.051Z,0.80
2022-07-29T04:14:28.717Z,0.80
2022-07-29T04:19:34.499Z,0.90
2022-07-29T04:24:38.138Z,1.00
2022-07-29T04:29:56.634Z,0.70
2022-07-29T04:35:02.478Z,0.90
2022-07-29T04:40:08.754Z,0.98
2022-07-29T04:45:12.527Z,0.85
2022-07-29T04:50:19.266Z,0.75
2022-07-29T04:55:23.076Z,0.90
2022-07-29T05:00:33.051Z,1.00
2022-07-29T05:05:38.597Z,1.10
2022-07-29T05:10:42.129Z,1.00
2022-07-29T05:15:46.101Z,0.90
2022-07-29T05:20:51.068Z,1.08
2022-07-29T05:25:54.755Z,1.00
2022-07-29T05:30:59.659Z,1.15
2022-07-29T05:36:06.576Z,1.20
2022-07-29T05:41:10.433Z,1.27
2022-07-29T05:46:14.984Z,1.20
2022-07-29T05:51:20.027Z,1.10
2022-07-29T05:56:24.434Z,1.10
2022-07-29T06:01:28.303Z,1.10
2022-07-29T06:06:33.355Z,1.20
2022-07-29T06:11:36.947Z,1.30
2022-07-29T06:16:40.523Z,1.17
2022-07-29T06:21:46.224Z,1.20
2022-07-29T06:26:49.889Z,1.20
2022-07-29T06:31:53.552Z,1.40
2022-07-29T06:36:58.717Z,1.13
2022-07-29T06:42:03.240Z,1.23
2022-07-29T06:47:07.400Z,1.20
2022-07-29T06:52:12.282Z,1.30
2022-07-29T06:57:15.925Z,1.50
2022-07-29T07:02:19.641Z,1.45
2022-07-29T07:07:24.603Z,1.60
2022-07-29T07:12:28.445Z,1.60
2022-07-29T07:17:32.001Z,1.42
2022-07-29T07:22:38.899Z,1.50
2022-07-29T07:27:43.394Z,1.50
2022-07-29T07:32:47.033Z,1.65
2022-07-29T07:37:52.130Z,1.60
2022-07-29T07:42:55.753Z,1.35
2022-07-29T07:47:59.354Z,1.60
2022-07-29T07:53:05.306Z,1.60
2022-07-29T07:58:08.892Z,1.60
2022-07-29T08:03:17.107Z,1.90
2022-07-29T08:08:23.109Z,4.18
2022-07-29T08:13:31.101Z,3.80
2022-07-29T08:18:34.665Z,3.22
2022-07-29T08:23:47.249Z,3.30
2022-07-29T08:28:53.150Z,2.90
2022-07-29T08:33:57.299Z,2.88
2022-07-29T08:39:05.289Z,2.97
2022-07-29T08:44:09.142Z,2.80
2022-07-29T08:49:13.010Z,2.85
2022-07-29T08:54:20.303Z,4.60
2022-07-29T09:04:36.105Z,3.00
2022-07-29T09:09:41.217Z,2.80
2022-07-29T09:14:45.493Z,2.70
2022-07-29T09:19:49.078Z,2.60
2022-07-29T09:24:55.665Z,2.10
2022-07-29T09:30:01.933Z,1.90
2022-07-29T09:35:24.816Z,2.00
2022-07-29T09:40:30.816Z,1.73
2022-07-29T09:45:36.426Z,1.70
2022-07-29T09:50:42.412Z,1.58
2022-07-29T09:55:52.098Z,1.40
2022-07-29T10:00:58.159Z,1.40
2022-07-29T10:06:11.085Z,1.30
2022-07-29T10:11:18.940Z,1.60
2022-07-29T10:16:22.660Z,1.50
2022-07-29T10:21:36.083Z,1.25
2022-07-29T10:26:41.997Z,1.58
2022-07-29T10:32:00.874Z,1.55
2022-07-29T10:37:19.606Z,1.30
2022-07-29T10:42:29.749Z,1.60
2022-07-29T10:47:38.038Z,1.50
2022-07-29T10:53:00.902Z,1.40
2022-07-29T10:58:18.225Z,1.30
2022-07-29T11:03:50.854Z,1.60
2022-07-29T11:09:25.926Z,1.63
2022-07-29T11:15:18.049Z,1.63
2022-07-29T11:20:45.639Z,1.48
2022-07-29T11:26:22.889Z,1.50
2022-07-29T11:31:44.320Z,1.50
2022-07-29T11:59:50.882Z,1.58
2022-07-29T12:04:57.023Z,1.50
2022-07-29T12:10:00.826Z,1.80
2022-07-29T12:15:18.707Z,1.50
2022-07-29T12:20:31.019Z,1.58
2022-07-29T12:25:38.111Z,1.67
2022-07-29T12:30:49.512Z,1.70
2022-07-29T12:36:09.446Z,3.25
2022-07-29T12:41:15.613Z,2.92
2022-07-29T12:46:20.679Z,2.50
2022-07-29T12:51:32.269Z,2.40
2022-07-29T12:56:44.938Z,2.13
2022-07-29T13:01:54.555Z,2.17
2022-07-29T13:07:06.483Z,2.20
2022-07-29T13:12:12.240Z,2.17
2022-07-29T13:17:20.065Z,1.90
2022-07-29T13:22:26.266Z,1.80
2022-07-29T13:27:33.802Z,2.10
2022-07-29T13:32:39.179Z,2.03
2022-07-29T13:37:43.205Z,2.03
2022-07-29T13:42:46.970Z,2.00
2022-07-29T13:47:52.014Z,1.95
2022-07-29T13:52:55.633Z,1.88
2022-07-29T13:57:59.255Z,2.30
2022-07-29T14:03:04.871Z,2.05
2022-07-29T14:08:08.429Z,1.70
2022-07-29T14:13:24.406Z,1.92
2022-07-29T14:18:30.680Z,1.80
2022-07-29T14:23:34.488Z,1.70
2022-07-29T14:28:41.800Z,1.95
2022-07-29T14:33:49.361Z,2.00
2022-07-29T14:38:52.961Z,2.00
2022-07-29T14:43:56.760Z,2.28
2022-07-29T14:49:01.844Z,2.22
2022-07-29T14:54:05.829Z,2.20
2022-07-29T14:59:09.388Z,2.20
2022-07-29T15:04:14.422Z,2.35
2022-07-29T15:09:18.108Z,1.95
2022-07-29T15:14:21.715Z,2.00
2022-07-29T15:19:26.870Z,1.80
2022-07-29T15:24:30.523Z,1.92
2022-07-29T15:29:34.161Z,1.67
2022-07-29T15:34:41.187Z,1.77
2022-07-29T15:39:44.851Z,1.65
2022-07-29T15:44:48.493Z,1.63
2022-07-29T15:49:53.550Z,1.80
2022-07-29T15:54:58.834Z,1.45
2022-07-29T16:00:02.485Z,1.67
2022-07-29T16:05:13.449Z,1.80
2022-07-29T16:10:17.409Z,1.70
2022-07-29T16:15:21.164Z,1.30
2022-07-29T16:20:26.169Z,1.40
2022-07-29T16:25:57.580Z,1.30
2022-07-29T16:30:54.541Z,1.23
2022-07-29T16:35:59.630Z,1.50
2022-07-29T16:41:03.324Z,1.40
2022-07-29T16:46:08.965Z,1.33
2022-07-29T16:51:17.994Z,1.42
2022-07-29T16:56:21.644Z,1.23
2022-07-29T17:01:25.336Z,1.27
2022-07-29T17:06:30.528Z,1.20
2022-07-29T17:11:53.686Z,1.40
2022-07-29T17:17:02.220Z,1.40
2022-07-29T17:22:15.635Z,1.35
2022-07-29T17:27:22.539Z,1.50
2022-07-29T17:32:26.334Z,1.30
2022-07-29T17:37:31.263Z,1.42
2022-07-29T17:42:34.864Z,1.30
2022-07-29T17:47:38.585Z,1.50
2022-07-29T17:52:43.802Z,1.40
2022-07-29T17:57:47.447Z,1.50
2022-07-29T18:02:52.647Z,1.42
2022-07-29T18:07:57.942Z,1.50
2022-07-29T18:13:02.825Z,1.90
2022-07-29T18:18:06.693Z,2.88
2022-07-29T18:23:12.298Z,2.55
2022-07-29T18:28:16.086Z,2.90
2022-07-29T18:33:22.281Z,2.97
2022-07-29T18:38:27.896Z,2.58
2022-07-29T18:43:31.823Z,2.20
2022-07-29T18:48:35.529Z,2.60
2022-07-29T18:53:40.532Z,2.60
2022-07-29T18:58:44.515Z,2.30
2022-07-29T19:03:48.208Z,2.17
2022-07-29T19:08:53.355Z,2.38
2022-07-29T19:13:58.967Z,2.10
2022-07-29T19:19:02.546Z,1.80
2022-07-29T19:24:13.638Z,2.00
2022-07-29T19:29:19.336Z,2.03
2022-07-29T19:34:23.005Z,1.90
2022-07-29T19:39:31.943Z,1.75
2022-07-29T19:44:39.055Z,1.65
2022-07-29T19:49:42.813Z,1.73
2022-07-29T19:54:47.821Z,1.67
2022-07-29T19:59:51.494Z,1.60
2022-07-29T20:04:55.623Z,1.80
2022-07-29T20:10:00.929Z,1.70
2022-07-29T20:15:05.201Z,1.50
2022-07-29T20:20:10.940Z,1.50
2022-07-29T20:25:15.963Z,1.33
2022-07-29T20:30:19.628Z,1.35
2022-07-29T20:35:24.801Z,1.55
2022-07-29T20:40:30.970Z,1.40
2022-07-29T20:45:34.786Z,1.50
2022-07-29T20:50:38.495Z,1.40
2022-07-29T20:55:44.050Z,1.45
2022-07-29T21:00:48.041Z,1.20
2022-07-29T21:05:52.030Z,1.30
2022-07-29T21:10:57.551Z,1.27
2022-07-29T21:20:18.539Z,1.42
2022-07-29T21:25:22.509Z,1.55
2022-07-29T21:30:26.167Z,1.40
2022-07-29T21:36:06.383Z,1.35
2022-07-29T21:40:55.736Z,1.25
2022-07-29T21:46:01.650Z,1.30
2022-07-29T21:51:06.926Z,1.40
2022-07-29T21:56:14.709Z,1.50
2022-07-29T22:01:19.465Z,1.70
2022-07-29T22:06:24.505Z,1.55
2022-07-29T22:11:28.307Z,1.55
2022-07-29T22:16:32.023Z,1.50
2022-07-29T22:21:36.992Z,1.60
2022-07-29T22:26:40.565Z,1.60
2022-07-29T22:31:44.246Z,1.70
2022-07-29T22:36:49.340Z,1.90
2022-07-29T22:41:52.911Z,1.80
2022-07-29T22:46:56.640Z,1.70
2022-07-29T22:52:02.012Z,1.80
2022-07-29T22:57:06.642Z,1.90
2022-07-29T23:02:10.121Z,1.98
2022-07-29T23:07:15.316Z,1.98
2022-07-29T23:12:18.939Z,2.00
2022-07-29T23:17:22.535Z,2.20
2022-07-29T23:22:27.467Z,1.75
2022-07-29T23:27:31.123Z,2.05
2022-07-29T23:32:34.785Z,2.15
2022-07-29T23:37:39.816Z,2.40
2022-07-29T23:42:44.062Z,2.58
2022-07-29T23:47:47.904Z,2.25
2022-07-29T23:52:52.970Z,2.40
2022-07-29T23:57:56.650Z,2.20
